Time;durP1;ratioP1;P1;durP2;ratioP2;P2;SDS_P1;SDS_P2;PMS_P1;PMS_P2;Temp;Humidity;BMP_temperature;BMP_pressure;BME280_temperature;BME280_humidity;BME280_pressure;Samples;Min_cycle;Max_cycle;Signal;HPM_P1;HPM_P2
2021/12/21 00:00:27;;;;;;;8.00;3.35;;;;;;;;;;6209209;23;20005;-96
2021/12/21 00:02:55;;;;;;;7.53;4.70;;;;;;;;;;6212003;23;20063;-95
2021/12/21 00:05:25;;;;;;;8.35;3.90;;;;;;;;;;6209464;23;20016;-95
2021/12/21 00:07:58;;;;;;;11.82;4.65;;;;;;;;;;6214682;23;20052;-95
2021/12/21 00:10:26;;;;;;;6.20;3.40;;;;;;;;;;6215275;23;20015;-95
2021/12/21 00:15:27;;;;;;;8.27;4.07;;;;;;;;;;6215939;22;20013;-95
2021/12/21 00:18:13;;;;;;;6.22;4.45;;;;;;;;;;6278852;22;19996;-94
2021/12/21 00:21:02;;;;;;;15.07;5.15;;;;;;;;;;6278790;22;20049;-95
2021/12/21 00:26:09;;;;;;;5.53;3.42;;;;;;;;;;6280431;22;20427;-94
2021/12/21 00:28:54;;;;;;;9.98;4.70;;;;;;;;;;6280615;22;20000;-96
2021/12/21 00:31:25;;;;;;;7.03;4.63;;;;;;;;;;6277689;22;20103;-96
2021/12/21 00:34:07;;;;;;;12.65;4.72;;;;;;;;;;6274141;22;20027;-95
2021/12/21 00:36:38;;;;;;;7.22;3.97;;;;;;;;;;6277531;22;20008;-93
2021/12/21 00:39:22;;;;;;;10.77;4.60;;;;;;;;;;6277164;22;20015;-96
2021/12/21 00:41:49;;;;;;;10.15;4.03;;;;;;;;;;6277551;22;20035;-96
2021/12/21 00:44:15;;;;;;;5.85;3.63;;;;;;;;;;6273780;22;20443;-95
2021/12/21 00:46:43;;;;;;;13.20;5.07;;;;;;;;;;6278906;22;20023;-96
2021/12/21 00:49:16;;;;;;;6.57;3.33;;;;;;;;;;6278102;22;20030;-95
2021/12/21 00:51:48;;;;;;;9.63;4.20;;;;;;;;;;6278706;22;20034;-96
2021/12/21 00:54:20;;;;;;;4.57;2.60;;;;;;;;;;6275474;22;20026;-95
2021/12/21 00:56:52;;;;;;;8.65;4.80;;;;;;;;;;6279297;22;20008;-94
2021/12/21 00:59:25;;;;;;;9.65;4.88;;;;;;;;;;6280163;22;19999;-95
2021/12/21 01:02:00;;;;;;;18.15;3.53;;;;;;;;;;6279886;22;20015;-96
2021/12/21 01:04:37;;;;;;;7.10;4.30;;;;;;;;;;6275000;22;20027;-95
2021/12/21 01:07:26;;;;;;;14.15;4.85;;;;;;;;;;6276747;22;20091;-95
2021/12/21 01:12:59;;;;;;;13.65;4.65;;;;;;;;;;6279044;22;20019;-95
2021/12/21 01:18:25;;;;;;;6.18;3.72;;;;;;;;;;6278966;22;20089;-96
2021/12/21 01:21:12;;;;;;;12.57;4.63;;;;;;;;;;6278816;22;20007;-94
2021/12/21 01:35:39;;;;;;;7.82;3.78;;;;;;;;;;6242678;23;20067;-95
2021/12/21 01:38:18;;;;;;;8.48;4.10;;;;;;;;;;6214895;23;20005;-95
2021/12/21 01:52:17;;;;;;;8.98;5.22;;;;;;;;;;6313255;22;20034;-95
2021/12/21 01:54:58;;;;;;;6.00;3.55;;;;;;;;;;6287716;22;20081;-96
2021/12/21 01:57:34;;;;;;;8.65;4.00;;;;;;;;;;6289616;22;20013;-96
2021/12/21 02:00:32;;;;;;;11.82;4.65;;;;;;;;;;6317573;22;20004;-95
2021/12/21 02:03:11;;;;;;;9.05;3.65;;;;;;;;;;6313232;22;20007;-95
2021/12/21 02:05:38;;;;;;;12.43;4.30;;;;;;;;;;6315085;22;20071;-95
2021/12/21 02:08:07;;;;;;;7.82;4.18;;;;;;;;;;6316954;22;19999;-96
2021/12/21 02:10:43;;;;;;;5.63;4.80;;;;;;;;;;6317086;22;20007;-95
2021/12/21 02:13:18;;;;;;;7.30;3.88;;;;;;;;;;6316198;22;19999;-96
2021/12/21 02:15:47;;;;;;;11.68;3.97;;;;;;;;;;6317072;22;20030;-95
2021/12/21 02:21:07;;;;;;;12.80;4.78;;;;;;;;;;6318125;22;20026;-96
2021/12/21 02:23:40;;;;;;;11.82;4.85;;;;;;;;;;6286547;22;20003;-95
2021/12/21 02:29:28;;;;;;;8.23;3.75;;;;;;;;;;6145733;23;20010;-95
2021/12/21 02:35:09;;;;;;;12.95;5.05;;;;;;;;;;6074387;23;20011;-96
2021/12/21 02:37:44;;;;;;;8.45;4.78;;;;;;;;;;6076240;23;20074;-95
2021/12/21 02:40:13;;;;;;;12.23;4.70;;;;;;;;;;6076858;23;20450;-95
2021/12/21 02:42:54;;;;;;;6.88;3.75;;;;;;;;;;6077400;23;20442;-95
2021/12/21 02:45:39;;;;;;;6.20;4.05;;;;;;;;;;6074219;23;20018;-95
2021/12/21 02:48:09;;;;;;;11.15;4.95;;;;;;;;;;6076344;23;20035;-94
2021/12/21 02:50:47;;;;;;;10.07;4.53;;;;;;;;;;6076079;23;20014;-96
2021/12/21 02:53:14;;;;;;;8.10;4.72;;;;;;;;;;6074121;23;20027;-96
2021/12/21 02:55:42;;;;;;;14.70;5.07;;;;;;;;;;6073796;23;20045;-96
2021/12/21 02:58:09;;;;;;;11.25;3.80;;;;;;;;;;6075722;23;20014;-95
2021/12/21 03:00:35;;;;;;;7.40;3.55;;;;;;;;;;6075627;23;20003;-96
2021/12/21 03:06:13;;;;;;;14.10;4.55;;;;;;;;;;6133493;23;20029;-96
2021/12/21 03:09:54;;;;;;;14.15;4.53;;;;;;;;;;6109377;23;20022;-95
2021/12/21 03:14:26;;;;;;;11.48;5.28;;;;;;;;;;6192026;23;20031;-95
2021/12/21 03:19:55;;;;;;;6.75;3.47;;;;;;;;;;6104317;23;20315;-96
2021/12/21 03:22:26;;;;;;;11.98;5.00;;;;;;;;;;6082010;23;20496;-96
2021/12/21 03:24:56;;;;;;;10.88;3.60;;;;;;;;;;6103582;23;20414;-96
2021/12/21 03:27:53;;;;;;;12.10;3.83;;;;;;;;;;6080775;23;20025;-96
2021/12/21 03:30:26;;;;;;;10.18;4.13;;;;;;;;;;6047771;23;20007;-95
2021/12/21 03:33:08;;;;;;;12.27;4.07;;;;;;;;;;6024774;23;20015;-94
2021/12/21 03:39:04;;;;;;;9.02;4.68;;;;;;;;;;6048691;23;20007;-95
2021/12/21 03:41:45;;;;;;;11.88;5.05;;;;;;;;;;6003520;23;20011;-95
2021/12/21 03:44:11;;;;;;;7.13;4.28;;;;;;;;;;6047867;23;20007;-96
2021/12/21 03:52:17;;;;;;;10.45;3.60;;;;;;;;;;6046712;23;20024;-96
2021/12/21 03:54:51;;;;;;;4.68;2.50;;;;;;;;;;6043688;23;20008;-96
2021/12/21 03:57:17;;;;;;;8.70;3.08;;;;;;;;;;6081683;23;20089;-94
2021/12/21 03:59:48;;;;;;;7.53;4.28;;;;;;;;;;6055594;23;20072;-95
2021/12/21 04:02:30;;;;;;;13.00;3.72;;;;;;;;;;6099443;23;20121;-95
2021/12/21 04:04:58;;;;;;;10.70;3.58;;;;;;;;;;6078794;23;20010;-95
2021/12/21 04:07:38;;;;;;;15.25;4.03;;;;;;;;;;6138114;23;20009;-94
2021/12/21 04:10:05;;;;;;;8.27;4.18;;;;;;;;;;6191707;23;20005;-95
2021/12/21 04:12:31;;;;;;;14.45;3.72;;;;;;;;;;6193761;23;20009;-95
2021/12/21 04:15:24;;;;;;;12.27;4.18;;;;;;;;;;6247547;22;20011;-96
2021/12/21 04:18:14;;;;;;;8.52;3.80;;;;;;;;;;6322242;22;20003;-96
2021/12/21 04:20:41;;;;;;;10.05;3.42;;;;;;;;;;6234072;22;20053;-95
2021/12/21 04:23:13;;;;;;;5.13;2.72;;;;;;;;;;6289615;22;20007;-95
2021/12/21 04:26:07;;;;;;;11.52;4.57;;;;;;;;;;6295649;22;20011;-96
2021/12/21 04:28:40;;;;;;;8.35;4.63;;;;;;;;;;6296750;22;19999;-96
2021/12/21 04:31:10;;;;;;;11.98;3.53;;;;;;;;;;6290122;22;20441;-96
2021/12/21 04:33:46;;;;;;;11.48;4.63;;;;;;;;;;6264919;22;20011;-96
2021/12/21 04:36:20;;;;;;;9.40;3.40;;;;;;;;;;6289708;22;20010;-95
2021/12/21 04:39:01;;;;;;;15.07;4.18;;;;;;;;;;6263803;22;20228;-95
2021/12/21 04:41:49;;;;;;;8.43;3.33;;;;;;;;;;6294372;22;20063;-96
2021/12/21 04:44:37;;;;;;;5.70;2.38;;;;;;;;;;6292802;22;20068;-94
2021/12/21 04:47:17;;;;;;;9.20;3.78;;;;;;;;;;6294254;22;20423;-96
2021/12/21 04:49:58;;;;;;;6.78;3.35;;;;;;;;;;6293838;22;20000;-95
2021/12/21 05:01:08;;;;;;;12.48;5.18;;;;;;;;;;6297377;22;20014;-95
2021/12/21 05:03:40;;;;;;;15.20;4.43;;;;;;;;;;6270107;22;20034;-95
2021/12/21 05:06:18;;;;;;;10.35;3.90;;;;;;;;;;6293707;22;20003;-94
2021/12/21 05:09:06;;;;;;;11.40;3.50;;;;;;;;;;6288109;22;20000;-96
2021/12/21 05:11:36;;;;;;;10.43;5.13;;;;;;;;;;6268872;22;20018;-94
2021/12/21 05:14:27;;;;;;;13.15;5.82;;;;;;;;;;6291279;22;20026;-96
2021/12/21 05:16:58;;;;;;;12.05;4.55;;;;;;;;;;6267142;22;20004;-96
2021/12/21 05:19:24;;;;;;;13.57;4.38;;;;;;;;;;6295331;22;19995;-94
2021/12/21 05:22:01;;;;;;;8.73;4.40;;;;;;;;;;6217422;22;20008;-94
2021/12/21 05:24:39;;;;;;;10.85;4.93;;;;;;;;;;6268079;22;20274;-96
2021/12/21 05:27:48;;;;;;;8.27;4.28;;;;;;;;;;6263206;22;20008;-96
2021/12/21 05:30:27;;;;;;;8.73;3.53;;;;;;;;;;6293608;22;20074;-95
2021/12/21 05:32:58;;;;;;;11.63;3.42;;;;;;;;;;6286865;22;20011;-96
2021/12/21 05:35:27;;;;;;;10.80;4.53;;;;;;;;;;6267118;22;20003;-94
2021/12/21 05:38:08;;;;;;;12.75;4.78;;;;;;;;;;6293101;22;20028;-96
2021/12/21 05:41:00;;;;;;;8.95;3.25;;;;;;;;;;6242410;22;20026;-96
2021/12/21 05:43:36;;;;;;;5.30;3.20;;;;;;;;;;6294277;22;20003;-95
2021/12/21 05:46:22;;;;;;;14.25;4.75;;;;;;;;;;6293868;22;20034;-96
2021/12/21 05:49:13;;;;;;;9.75;4.90;;;;;;;;;;6288549;22;20289;-95
2021/12/21 05:51:49;;;;;;;9.93;4.63;;;;;;;;;;6338907;22;20490;-96
2021/12/21 05:54:26;;;;;;;14.60;5.03;;;;;;;;;;6304890;22;20008;-96
2021/12/21 05:57:12;;;;;;;7.68;4.40;;;;;;;;;;6358972;22;20007;-96
2021/12/21 05:59:59;;;;;;;12.98;4.75;;;;;;;;;;6334287;22;19999;-95
2021/12/21 06:02:58;;;;;;;12.38;4.13;;;;;;;;;;6240287;23;20044;-96
2021/12/21 06:05:40;;;;;;;12.43;5.70;;;;;;;;;;6181632;23;20013;-96
2021/12/21 06:08:41;;;;;;;11.93;4.70;;;;;;;;;;6205531;23;20505;-95
2021/12/21 06:11:49;;;;;;;11.25;5.18;;;;;;;;;;6050040;23;20007;-96
2021/12/21 06:26:45;;;;;;;13.60;5.43;;;;;;;;;;6061145;23;20030;-95
2021/12/21 06:29:11;;;;;;;9.38;3.83;;;;;;;;;;6049824;23;20008;-96
2021/12/21 06:31:39;;;;;;;8.57;3.30;;;;;;;;;;6024937;23;20017;-96
2021/12/21 06:34:17;;;;;;;9.82;4.70;;;;;;;;;;6049623;23;20026;-95
2021/12/21 06:37:00;;;;;;;14.52;5.30;;;;;;;;;;6077949;23;19998;-95
2021/12/21 06:39:36;;;;;;;14.98;5.72;;;;;;;;;;6073632;23;20010;-96
2021/12/21 07:05:14;;;;;;;9.63;3.78;;;;;;;;;;6238126;22;20099;-94
2021/12/21 07:08:21;;;;;;;;;;;;;;;;;;;;;
2021/12/21 07:23:41;;;;;;;15.82;6.20;;;;;;;;;;6097566;23;20026;-95
2021/12/21 07:26:58;;;;;;;14.07;6.97;;;2.30;77.00;;;;;;5998663;24;20012;-96
2021/12/21 07:38:30;;;;;;;15.98;7.78;;;;;;;;;;6301906;22;20023;-94
2021/12/21 07:41:23;;;;;;;12.95;5.50;;;;;;;;;;6307541;22;20499;-95
2021/12/21 07:44:14;;;;;;;10.13;6.18;;;;;;;;;;6310472;22;20003;-96
2021/12/21 07:50:18;;;;;;;14.05;5.32;;;;;;;;;;6306038;22;20058;-93
2021/12/21 07:52:55;;;;;;;11.43;4.72;;;;;;;;;;6310903;22;20007;-96
2021/12/21 07:55:48;;;;;;;9.63;5.15;;;;;;;;;;6292567;22;20405;-95
2021/12/21 07:58:17;;;;;;;7.85;3.83;;;;;;;;;;6301696;22;20003;-94
2021/12/21 08:04:00;;;;;;;12.30;5.68;;;;;;;;;;6212587;23;20013;-94
2021/12/21 08:07:10;;;;;;;11.23;5.45;;;;;;;;;;6211217;23;20013;-94
2021/12/21 08:16:15;;;;;;;22.63;6.78;;;;;;;;;;6092242;23;20015;-93
2021/12/21 08:18:41;;;;;;;11.77;6.28;;;;;;;;;;6092567;23;20497;-93
2021/12/21 08:21:36;;;;;;;17.40;7.15;;;;;;;;;;6092548;23;20007;-92
2021/12/21 08:24:33;;;;;;;;;;;;;;;;;;;;;
2021/12/21 08:27:07;;;;;;;19.70;7.65;;;;;;;;;;6016735;23;20095;-92
2021/12/21 08:29:36;;;;;;;23.92;7.03;;;;;;;;;;6044583;23;20003;-96
2021/12/21 08:32:04;;;;;;;14.23;5.75;;;;;;;;;;6042036;23;20014;-94
2021/12/21 08:38:17;;;;;;;15.48;5.38;;;;;;;;;;6040859;23;20018;-94
2021/12/21 08:41:00;;;;;;;18.83;8.32;;;;;;;;;;5918940;24;20141;-93
2021/12/21 08:43:31;;;;;;;6.65;4.35;;;;;;;;;;5958105;24;20048;-94
2021/12/21 08:46:22;;;;;;;17.73;6.45;;;;;;;;;;6005287;23;20063;-93
2021/12/21 08:49:14;;;;;;;14.82;6.50;;;;;;;;;;6017675;23;20004;-92
2021/12/21 08:51:45;;;;;;;9.55;4.00;;;;;;;;;;6062531;23;20026;-93
2021/12/21 08:57:39;;;;;;;;;;;;;;;;;;;;;
2021/12/21 09:00:10;;;;;;;18.67;9.15;;;;;;;;;;6064292;23;20081;-91
2021/12/21 09:02:37;;;;;;;14.27;6.75;;;;;;;;;;6070020;23;20034;-92
2021/12/21 09:05:18;;;;;;;8.90;4.40;;;;;;;;;;6068341;23;20231;-92
2021/12/21 09:07:48;;;;;;;9.05;4.30;;;;;;;;;;6070519;23;20003;-92
2021/12/21 09:10:40;;;;;;;10.82;4.35;;;;;;;;;;6074089;23;20011;-95
2021/12/21 09:20:52;;;;;;;8.40;4.93;;;;;;;;;;6072861;23;20007;-95
2021/12/21 09:30:39;;;;;;;13.43;4.97;;;;;;;;;;5890297;24;20056;-95
2021/12/21 09:39:32;;;;;;;15.77;7.43;;;;;;;;;;5844228;24;20017;-95
2021/12/21 09:48:54;;;;;;;8.00;4.45;;;7.40;60.50;;;;;;6330184;22;20051;-95
2021/12/21 09:51:30;;;;;;;9.43;4.63;;;;;;;;;;6340975;22;20013;-95
2021/12/21 09:54:12;;;;;;;;;;;;;;;;;;;;;
2021/12/21 10:03:38;;;;;;;12.30;4.30;;;;;;;;;;6154017;23;20016;-95
2021/12/21 10:17:57;;;;;;;11.18;4.65;;;;;;;;;;6243713;23;20091;-94
2021/12/21 10:21:03;;;;;;;14.48;6.00;;;;;;;;;;6243164;23;20008;-95
2021/12/21 10:26:51;;;;;;;11.02;4.88;;;;;;;;;;6058519;23;20014;-94
2021/12/21 10:29:23;;;;;;;8.57;4.15;;;;;;;;;;6065146;23;20525;-93
2021/12/21 10:31:52;;;;;;;11.07;5.18;;;;;;;;;;6064551;23;20030;-92
2021/12/21 10:34:34;;;;;;;19.20;6.13;;;;;;;;;;6104673;22;20006;-96
2021/12/21 10:37:03;;;;;;;10.27;5.43;;;;;;;;;;6325711;22;20019;-95
2021/12/21 10:39:31;;;;;;;12.90;5.90;;;;;;;;;;6312290;22;20027;-93
2021/12/21 10:44:45;;;;;;;;;;;8.50;58.00;;;;;;6311082;22;20058;-94
2021/12/21 10:47:14;;;;;;;15.05;5.95;;;;;;;;;;6289609;22;19914;-94
2021/12/21 10:49:48;;;;;;;9.48;5.35;;;;;;;;;;6313788;22;20003;-95
2021/12/21 10:52:21;;;;;;;14.07;6.00;;;;;;;;;;6312212;22;20435;-92
2021/12/21 10:55:04;;;;;;;11.45;5.32;;;;;;;;;;6313787;22;20434;-94
2021/12/21 10:57:32;;;;;;;13.10;6.78;;;;;;;;;;6284507;22;20007;-95
2021/12/21 11:00:00;;;;;;;12.55;5.30;;;;;;;;;;6309648;22;20023;-94
2021/12/21 11:02:31;;;;;;;11.48;5.40;;;;;;;;;;6317101;22;20059;-95
2021/12/21 11:05:01;;;;;;;10.80;5.07;;;;;;;;;;6318270;22;20013;-95
2021/12/21 11:15:37;;;;;;;11.15;5.78;;;;;;;;;;6314088;22;20019;-96
2021/12/21 11:18:42;;;;;;;16.88;6.97;;;;;;;;;;6246981;22;20011;-96
2021/12/21 11:21:13;;;;;;;10.15;6.13;;;;;;;;;;6278629;22;20082;-95
2021/12/21 11:23:39;;;;;;;16.88;6.15;;;;;;;;;;6305831;22;19996;-93
2021/12/21 11:28:55;;;;;;;14.32;6.70;;;;;;;;;;6288828;22;20007;-94
2021/12/21 11:31:24;;;;;;;11.65;6.57;;;;;;;;;;6307268;22;20014;-93
2021/12/21 11:34:12;;;;;;;12.82;6.43;;;;;;;;;;6307381;22;20426;-94
2021/12/21 11:42:54;;;;;;;19.00;6.90;;;;;;;;;;6227745;23;20036;-95
2021/12/21 11:45:45;;;;;;;19.95;5.93;;;;;;;;;;6200512;23;20455;-94
2021/12/21 11:50:59;;;;;;;;;;;;;;;;;;;;;
2021/12/21 11:53:37;;;;;;;20.02;6.70;;;;;;;;;;6178646;22;20062;-93
2021/12/21 11:56:38;;;;;;;15.63;6.55;;;;;;;;;;6308618;22;20068;-95
2021/12/21 12:02:33;;;;;;;20.73;7.28;;;;;;;;;;6177645;23;20013;-93
2021/12/21 12:08:44;;;;;;;15.90;6.45;;;;;;;;;;6184803;23;20084;-95
2021/12/21 12:11:35;;;;;;;;;;;;;;;;;;;;;
2021/12/21 12:17:47;;;;;;;23.70;7.07;;;;;;;;;;6185259;23;20523;-95
2021/12/21 12:20:22;;;;;;;18.20;7.25;;;;;;;;;;6182656;23;20009;-95
2021/12/21 12:26:06;;;;;;;11.93;6.30;;;;;;;;;;6179207;23;20016;-93
2021/12/21 12:38:48;;;;;;;13.35;5.40;;;;;;;;;;6098229;23;20022;-94
2021/12/21 12:42:01;;;;;;;;;;;;;;;;;;;;;
2021/12/21 12:45:54;;;;;;;15.25;5.85;;;;;;;;;;6098398;23;20094;-95
2021/12/21 12:51:57;;;;;;;14.13;7.63;;;;;;;;;;5955516;24;20028;-96
2021/12/21 12:54:48;;;;;;;11.98;5.88;;;;;;;;;;5879642;24;20021;-94
2021/12/21 13:00:51;;;;;;;18.17;6.13;;;;;;;;;;5899652;24;20010;-94
2021/12/21 13:03:43;;;;;;;17.38;8.20;;;;;;;;;;5899302;24;20058;-95
2021/12/21 13:06:37;;;;;;;16.23;6.78;;;;;;;;;;5897146;24;20085;-94
2021/12/21 13:09:32;;;;;;;20.30;7.18;;;;;;;;;;5872138;24;20013;-94
2021/12/21 13:12:22;;;;;;;17.83;6.97;;;;;;;;;;5886367;24;20010;-95
2021/12/21 13:21:16;;;;;;;15.57;6.57;;;;;;;;;;5804604;24;20053;-95
2021/12/21 13:23:57;;;;;;;13.90;7.22;;;;;;;;;;5840398;24;20010;-95
2021/12/21 13:38:26;;;;;;;22.30;6.53;;;;;;;;;;6308389;22;20008;-94
2021/12/21 13:41:22;;;;;;;;;;;;;;;;;;;;;
2021/12/21 13:44:14;;;;;;;19.27;5.80;;;;;;;;;;6301515;22;20095;-96
2021/12/21 13:49:43;;;;;;;16.75;6.32;;;;;;;;;;6212612;23;20520;-95
2021/12/21 13:52:41;;;;;;;16.75;6.95;;;;;;;;;;6210812;23;20012;-95
2021/12/21 13:55:27;;;;;;;16.23;6.10;;;;;;;;;;6213404;23;20461;-95
2021/12/21 14:00:29;;;;;;;18.60;8.30;;;5.00;70.70;;;;;;5100346;27;20455;-89
2021/12/21 19:18:30;;;;;;;17.55;9.95;;;;;;;;;;5126654;27;20335;-91
2021/12/21 19:20:56;;;;;;;20.50;8.38;;;;;;;;;;5125949;28;20042;-91
2021/12/21 19:23:23;;;;;;;20.25;6.78;;;;;;;;;;5089967;28;20537;-91
2021/12/21 19:25:50;;;;;;;26.70;8.30;;;;;;;;;;5089935;28;20081;-91
2021/12/21 19:28:19;;;;;;;;;;;4.10;77.10;;;;;;5096411;28;20121;-92
2021/12/21 19:30:45;;;;;;;24.65;12.18;;;;;;;;;;5096660;28;19912;-90
2021/12/21 19:33:12;;;;;;;20.37;9.63;;;;;;;;;;5109588;28;20024;-88
2021/12/21 19:35:42;;;;;;;25.08;11.07;;;;;;;;;;5109702;28;20274;-91
2021/12/21 19:38:08;;;;;;;22.38;9.70;;;;;;;;;;5108027;28;20044;-92
2021/12/21 19:40:35;;;;;;;22.55;9.90;;;3.00;85.00;;;;;;5109584;28;20027;-91
2021/12/21 19:43:01;;;;;;;23.88;7.70;;;;;;;;;;5117028;28;20034;-90
2021/12/21 19:45:29;;;;;;;21.13;9.82;;;;;;;;;;5116809;28;20032;-91
2021/12/21 19:47:55;;;;;;;20.65;10.73;;;;;;;;;;5106975;28;20036;-91
2021/12/21 19:50:23;;;;;;;28.27;9.98;;;;;;;;;;5089801;28;20032;-91
2021/12/21 19:52:50;;;;;;;25.95;10.75;;;;;;;;;;5107326;28;20038;-91
2021/12/21 19:55:16;;;;;;;28.20;9.82;;;;;;;;;;5109455;28;20031;-91
2021/12/21 19:57:45;;;;;;;30.70;12.23;;;;;;;;;;5100667;28;20386;-90
2021/12/21 20:00:12;;;;;;;41.10;11.93;;;;;;;;;;5089180;28;20028;-92
2021/12/21 20:02:38;;;;;;;30.88;9.45;;;;;;;;;;5071422;28;20028;-91
2021/12/21 20:05:04;;;;;;;42.10;13.70;;;3.00;88.70;;;;;;5120655;28;20081;-92
2021/12/21 20:07:31;;;;;;;33.03;9.55;;;;;;;;;;5114332;28;20370;-91
2021/12/21 20:09:58;;;;;;;30.65;12.18;;;;;;;;;;5109509;28;20088;-91
2021/12/21 20:12:29;;;;;;;29.10;11.77;;;;;;;;;;5103128;28;20432;-90
2021/12/21 20:14:56;;;;;;;30.10;11.38;;;;;;;;;;5121521;28;20054;-91
2021/12/21 20:17:22;;;;;;;18.35;10.00;;;;;;;;;;5116869;28;20044;-91
2021/12/21 20:19:49;;;;;;;27.23;8.73;;;;;;;;;;5089824;28;20036;-91
2021/12/21 20:22:16;;;;;;;36.20;13.80;;;;;;;;;;5071320;28;20117;-90
2021/12/21 20:24:42;;;;;;;27.45;10.13;;;;;;;;;;5079115;28;20262;-92
2021/12/21 20:27:09;;;;;;;28.07;12.17;;;;;;;;;;5089766;28;20029;-91
2021/12/21 20:29:35;;;;;;;29.65;12.52;;;;;;;;;;5107598;28;20015;-90
2021/12/21 20:32:01;;;;;;;22.85;11.00;;;;;;;;;;5098049;28;20034;-92
2021/12/21 20:34:32;;;;;;;30.70;9.52;;;;;;;;;;5100566;28;20471;-91
2021/12/21 20:36:59;;;;;;;39.28;13.20;;;;;;;;;;5096625;28;20047;-91
2021/12/21 20:39:25;;;;;;;18.73;10.68;;;;;;;;;;5103447;28;20039;-91
2021/12/21 20:41:51;;;;;;;18.35;7.78;;;;;;;;;;5097902;28;20028;-91
2021/12/21 20:44:17;;;;;;;34.63;11.20;;;;;;;;;;5077073;28;20070;-92
2021/12/21 20:46:43;;;;;;;26.65;11.30;;;;;;;;;;5085291;28;20081;-91
2021/12/21 20:49:09;;;;;;;27.65;9.52;;;;;;;;;;5097076;28;20024;-92
2021/12/21 20:51:35;;;;;;;23.40;11.27;;;;;;;;;;5085596;28;20059;-91
2021/12/21 20:54:01;;;;;;;40.92;10.20;;;;;;;;;;5106419;28;20128;-91
2021/12/21 20:56:27;;;;;;;30.10;10.45;;;;;;;;;;5097518;28;20024;-90
2021/12/21 20:58:53;;;;;;;28.17;11.00;;;;;;;;;;5086118;28;20039;-90
2021/12/21 21:01:19;;;;;;;27.27;11.10;;;;;;;;;;5104641;28;20019;-92
2021/12/21 21:03:45;;;;;;;27.67;11.48;;;;;;;;;;5096566;28;20029;-91
2021/12/21 21:06:11;;;;;;;37.42;13.15;;;;;;;;;;5089450;28;20024;-91
2021/12/21 21:08:39;;;;;;;24.67;10.75;;;;;;;;;;5105796;28;20024;-91
2021/12/21 21:11:07;;;;;;;30.00;11.57;;;;;;;;;;5074312;28;20102;-90
2021/12/21 21:13:33;;;;;;;35.05;13.45;;;;;;;;;;5094269;28;20119;-91
2021/12/21 21:15:59;;;;;;;25.38;9.57;;;;;;;;;;5104173;28;20024;-90
2021/12/21 21:18:25;;;;;;;19.77;8.77;;;;;;;;;;5102714;28;20048;-90
2021/12/21 21:20:51;;;;;;;34.10;11.57;;;;;;;;;;5107123;28;20019;-91
2021/12/21 21:23:17;;;;;;;27.25;9.27;;;;;;;;;;5106050;28;20027;-89
2021/12/21 21:25:43;;;;;;;24.38;9.65;;;;;;;;;;5082902;28;20024;-90
2021/12/21 21:28:10;;;;;;;40.63;13.20;;;;;;;;;;5079472;28;20068;-92
2021/12/21 21:30:36;;;;;;;28.58;10.55;;;;;;;;;;5109999;28;20035;-89
2021/12/21 21:33:02;;;;;;;32.17;12.57;;;;;;;;;;5089517;28;20033;-91
2021/12/21 21:35:28;;;;;;;32.83;12.35;;;;;;;;;;5102560;28;20031;-90
2021/12/21 21:37:54;;;;;;;24.55;12.60;;;;;;;;;;5096099;28;20412;-92
2021/12/21 21:40:20;;;;;;;31.52;10.98;;;;;;;;;;5082759;28;20028;-92
2021/12/21 21:42:46;;;;;;;28.85;11.32;;;;;;;;;;5093771;28;20034;-91
2021/12/21 21:45:13;;;;;;;22.00;12.20;;;;;;;;;;5109559;28;20020;-91
2021/12/21 21:47:40;;;;;;;19.42;8.73;;;;;;;;;;5075530;28;20070;-91
2021/12/21 21:50:06;;;;;;;32.22;13.55;;;;;;;;;;5073398;28;20041;-91
2021/12/21 21:52:33;;;;;;;27.52;14.05;;;;;;;;;;5086149;28;20035;-91
2021/12/21 21:54:59;;;;;;;25.13;11.75;;;;;;;;;;5084399;28;20089;-91
2021/12/21 21:57:25;;;;;;;42.83;12.40;;;;;;;;;;5087188;28;20048;-90
2021/12/21 21:59:51;;;;;;;31.35;15.15;;;;;;;;;;5106353;28;20023;-90
2021/12/21 22:02:17;;;;;;;22.90;11.82;;;;;;;;;;5073051;28;20024;-90
2021/12/21 22:04:43;;;;;;;20.77;8.93;;;;;;;;;;5072793;28;20028;-91
2021/12/21 22:07:09;;;;;;;30.50;11.77;;;;;;;;;;5074824;28;20031;-91
2021/12/21 22:09:36;;;;;;;21.88;12.40;;;;;;;;;;5080164;28;20400;-90
2021/12/21 22:12:02;;;;;;;26.73;11.10;;;;;;;;;;5091075;28;20550;-91
2021/12/21 22:14:28;;;;;;;27.05;11.93;;;;;;;;;;5093336;28;20036;-91
2021/12/21 22:16:56;;;;;;;26.90;12.23;;;;;;;;;;5088275;28;20472;-92
2021/12/21 22:19:22;;;;;;;27.55;11.70;;;;;;;;;;5089541;28;20111;-93
2021/12/21 22:21:49;;;;;;;36.80;13.05;;;;;;;;;;5092812;28;20036;-90
2021/12/21 22:24:15;;;;;;;34.55;12.13;;;;;;;;;;5088895;28;20032;-91
2021/12/21 22:26:40;;;;;;;28.45;12.60;;;;;;;;;;5096981;28;20081;-92
2021/12/21 22:29:07;;;;;;;26.88;10.05;;;;;;;;;;5073022;28;20016;-91
2021/12/21 22:31:33;;;;;;;28.60;10.65;;;;;;;;;;5087266;28;20076;-92
2021/12/21 22:33:59;;;;;;;27.85;10.80;;;;;;;;;;5092517;28;20131;-91
2021/12/21 22:36:26;;;;;;;28.70;10.27;;;;;;;;;;5086569;28;20366;-90
2021/12/21 22:38:53;;;;;;;28.60;11.52;;;;;;;;;;5074037;28;20028;-91
2021/12/21 22:41:20;;;;;;;26.35;9.40;;;;;;;;;;5091956;28;20116;-91
2021/12/21 22:43:46;;;;;;;35.05;11.68;;;;;;;;;;5103478;28;20441;-91
2021/12/21 22:46:12;;;;;;;30.55;11.85;;;;;;;;;;5104210;28;20019;-92
2021/12/21 22:48:39;;;;;;;26.98;11.50;;;;;;;;;;5082866;28;20028;-90
2021/12/21 22:51:05;;;;;;;40.97;13.90;;;;;;;;;;5072644;28;20055;-91
2021/12/21 22:53:32;;;;;;;36.42;14.32;;;;;;;;;;5073946;28;20028;-91
2021/12/21 22:55:58;;;;;;;28.13;12.57;;;;;;;;;;5078825;28;20442;-91
2021/12/21 22:58:24;;;;;;;23.65;11.73;;;;;;;;;;5079822;28;20042;-92
2021/12/21 23:00:55;;;;;;;30.33;12.70;;;2.60;91.50;;;;;;5064844;28;20015;-92
2021/12/21 23:03:21;;;;;;;29.52;8.75;;;;;;;;;;5074401;28;20028;-91
2021/12/21 23:05:48;;;;;;;26.23;11.05;;;;;;;;;;5094878;28;20031;-92
2021/12/21 23:08:14;;;;;;;29.90;13.03;;;;;;;;;;5106501;28;20023;-90
2021/12/21 23:10:41;;;;;;;29.65;10.55;;;;;;;;;;5108198;28;20024;-92
2021/12/21 23:13:07;;;;;;;33.30;11.43;;;;;;;;;;5089976;28;20535;-93
2021/12/21 23:15:34;;;;;;;34.95;11.00;;;;;;;;;;5103390;28;20036;-91
2021/12/21 23:18:00;;;;;;;29.80;12.43;;;;;;;;;;5106242;28;20075;-92
2021/12/21 23:20:26;;;;;;;20.05;9.90;;;;;;;;;;5095468;28;20486;-92
2021/12/21 23:22:52;;;;;;;31.00;11.77;;;;;;;;;;5101318;28;20143;-93
2021/12/21 23:25:19;;;;;;;20.75;10.45;;;;;;;;;;5095214;28;20180;-90
2021/12/21 23:27:45;;;;;;;18.90;9.52;;;;;;;;;;5094943;28;20414;-91
2021/12/21 23:30:11;;;;;;;32.50;10.93;;;;;;;;;;5104450;28;20032;-92
2021/12/21 23:32:38;;;;;;;22.50;9.77;;;;;;;;;;5103338;28;20032;-91
2021/12/21 23:35:07;;;;;;;40.67;12.82;;;2.60;91.50;;;;;;5094805;28;20046;-91
2021/12/21 23:37:33;;;;;;;25.13;11.07;;;;;;;;;;5107947;28;20108;-92
2021/12/21 23:39:59;;;;;;;38.88;10.85;;;;;;;;;;5088146;28;20016;-92
2021/12/21 23:42:25;;;;;;;21.75;9.88;;;;;;;;;;5089717;28;20107;-90
2021/12/21 23:44:51;;;;;;;28.65;9.45;;;;;;;;;;5093635;28;20051;-91
2021/12/21 23:47:17;;;;;;;27.80;11.38;;;;;;;;;;5073360;28;20453;-91
2021/12/21 23:49:43;;;;;;;32.67;12.48;;;;;;;;;;5082096;28;20038;-91
2021/12/21 23:52:09;;;;;;;33.53;11.00;;;;;;;;;;5082206;28;20028;-94
2021/12/21 23:54:35;;;;;;;31.55;15.55;;;;;;;;;;5092276;28;20076;-92
2021/12/21 23:57:01;;;;;;;40.25;12.30;;;;;;;;;;5093973;28;20088;-92
2021/12/21 23:59:27;;;;;;;37.17;12.52;;;;;;;;;;5112763;28;20043;-91
